Relevés horaires Bierset (Belgique)


Relevés horaires à Bierset - Jeudi 12 Août 2021
Heure UTC1 Température [°C] Vent [km/h] Hum. [%] Pres.4 [hPa] Visi. [Km] Nébu. [octa] Préc.5 [mm] Cond.
2m. Res. Ros. Dir.2 Vit. Moy. Raf.3
23:00 19.4 19.4 16.0 NNO 3.7 5.6 9.3 81 1019.5(-0.4/3h) 20 2/8 -- --
22:00 19.1 19.1 15.9 N 3.7 3.7 5.6 82 1019.3(0.2/3h) 30 2/8 -- --
21:00 21.7 21.7 15.8 E 1.9 5.6 7.4 69 1019.6(1.0/3h) 30 2/8 -- --
20:00 22.3 22.3 15.7 E 3.7 3.7 5.6 66 1019.7(1.0/3h) 30 2/8 -- --
19:00 22.3 22.3 15.8 N 1.9 5.6 5.6 67 1018.9(-0.2/3h) 30 2/8 -- --
18:00 23.8 23.8 15.9 NNE 3.7 7.4 13.0 61 1018.4(-0.3/3h) 30 5/8 0/12h
--
17:00 25.6 25.6 14.6 O 3.7 5.6 9.3 51 1018.5(-0.4/3h) 30 5/8 -- --
16:00 26.4 26.4 14.7 OSO 5.6 7.4 11.1 49 1018.5(-0.7/3h) 30 3/8 -- --
15:00 26.2 26.2 14.4 SSO 5.6 5.6 13.0 48 1018.5(-0.7/3h) 30 6/8 -- --
14:00 26.6 26.6 13.5 O 3.7 5.6 11.1 44 1018.8(-0.6/3h) 30 6/8 -- --
13:00 25.8 25.8 14.6 SO 1.9 5.6 11.1 50 1019.2(-0.4/3h) 30 6/8 -- --
12:00 25.1 25.1 14.3 SSE 5.6 7.4 14.8 51 1019.4(-0.6/3h) 30 7/8 0/6h
--
11:00 24.4 24.4 15.3 SSO 3.7 3.7 11.1 57 1019.6(-0.3/3h) 30 7/8 -- --
10:00 23.0 23.0 14.7 NNO 1.9 3.7 5.6 60 1019.8(0.3/3h) 30 7/8 -- --
09:00 20.1 20.1 15.7 S 3.7 7.4 14.8 76 1020.3(0.7/3h) 30 7/8 -- --
08:00 18.7 18.7 15.1 S 3.7 3.7 11.1 80 1020.3(0.4/3h) 25 7/8 -- --
07:00 17.1 17.1 14.5 SSE 1.9 7.4 14.8 85 1020(0.1/3h) 25 7/8 -- --
06:00 15.4 15.4 13.8 SE 7.4 7.4 22.2 90 1019.9(0.1/3h) 18 7/8 0/12h
--
05:00 15.1 15.1 13.7 SE 5.6 7.4 22.2 91 1020.2(0.0/3h) 15 7/8 -- --
04:00 15.2 15.2 13.6 SSE 5.6 7.4 22.2 90 1020(-0.5/3h) 18 5/8 -- --
03:00 15.7 15.7 13.8 SSE 5.6 7.4 16.7 88 1020(-0.5/3h) 30 3/8 -- --
02:00 15.3 15.3 13.6 SE 5.6 7.4 14.8 90 1020.2(-0.4/3h) 30 3/8 -- --
01:00 16.3 16.3 13.4 S 1.9 3.7 11.1 83 1020.5(-0.1/3h) 30 3/8 -- --
00:00 15.9 15.9 13.5 SE 3.7 3.7 11.1 86 1020.5(-0.1/3h) 30 1/8 0/6h
0/24h
--

1 Coordinated Universal Time. Actuellement il est 09:00 locale et 07:00 UTC.

2 Le vent souffle depuis la direction indiquée vers la direction oposée.

3 Les rafales max. sont disponible 40 min après l'heure du relevé.

4 Pour les stations d'altitude (plus de 600m) le géopotentiel du niveau le plus proche de la pression obligatoire est indiqué.

5 Les stations disposant d'un diffuseur peuvent indiquer "trace". Cela signifie que des précipitations ont touchés le sol mais que la quantité est inférieure à 0.1 mm.

Récapitulatif de la journée
Température [°C] Vent [km/h] Ensoleillement4 [h] Precipitations totale5 [mm] Pression [Hpa]
Min1 Max.2 Moy.3 Max. Min Max.
15.0 27.0 5.8 22.2 0 h 0 min 0 1018.4 1020.5

1 Température minimale relevée entre 18:00 UTC la veille et 18:00 UTC le jour donné.

2 Température maximale relevée entre 06:00 UTC le jour donné et 06:00 UTC le lendemain.

3 Vent moyen de la journée basé sur les relevés horaires.

4 Ensoleillement en heures relevé entre 06:00 UTC la veille et 06:00 UTC le jour donné.

5 Précipitations totales tombées entre 06:00 UTC la jour donné et 06:00 UTC le lendemain.

Graphiques horaires